createdAt,value
2023-03-04T00:02:07.259Z,22.20
2023-03-04T00:04:37.077Z,22.30
2023-03-04T00:07:06.785Z,22.30
2023-03-04T00:09:38.730Z,22.30
2023-03-04T00:12:09.645Z,22.30
2023-03-04T00:14:39.478Z,22.30
2023-03-04T00:17:10.117Z,22.30
2023-03-04T00:19:40.532Z,22.30
2023-03-04T00:22:10.896Z,22.30
2023-03-04T00:24:40.739Z,22.30
2023-03-04T00:27:10.607Z,22.30
2023-03-04T00:29:47.267Z,22.40
2023-03-04T00:32:17.309Z,22.40
2023-03-04T00:34:47.025Z,22.40
2023-03-04T00:37:17.038Z,22.40
2023-03-04T00:39:46.757Z,22.50
2023-03-04T00:42:17.309Z,22.50
2023-03-04T00:44:53.150Z,22.50
2023-03-04T00:47:23.018Z,22.60
2023-03-04T00:49:54.917Z,22.60
2023-03-04T00:52:24.996Z,22.70
2023-03-04T00:54:54.896Z,22.70
2023-03-04T01:01:11.226Z,22.80
2023-03-04T01:03:42.510Z,22.90
2023-03-04T01:06:13.177Z,23.00
2023-03-04T01:08:43.419Z,23.00
2023-03-04T01:11:13.368Z,23.00
2023-03-04T01:16:50.943Z,23.10
2023-03-04T01:19:37.088Z,23.10
2023-03-04T01:22:37.996Z,23.10
2023-03-04T01:24:59.772Z,23.20
2023-03-04T01:27:36.024Z,23.20
2023-03-04T01:30:04.860Z,23.30
2023-03-04T01:32:34.877Z,23.30
2023-03-04T01:35:05.303Z,23.40
2023-03-04T01:37:35.426Z,23.40
2023-03-04T01:40:06.859Z,23.40
2023-03-04T01:42:37.818Z,23.40
2023-03-04T01:45:08.329Z,23.40
2023-03-04T01:47:38.175Z,23.40
2023-03-04T01:50:09.592Z,23.40
2023-03-04T01:52:41.320Z,23.50
2023-03-04T01:55:15.838Z,23.50
2023-03-04T01:57:46.192Z,23.50
2023-03-04T02:00:26.653Z,23.50
2023-03-04T02:02:58.527Z,23.60
2023-03-04T02:05:29.141Z,23.60
2023-03-04T02:07:59.754Z,23.60
2023-03-04T02:10:29.981Z,23.70
2023-03-04T02:13:00.791Z,23.70
2023-03-04T02:15:31.694Z,23.80
2023-03-04T02:18:01.928Z,23.80
2023-03-04T02:20:39.294Z,23.90
2023-03-04T02:23:10.631Z,24.00
2023-03-04T02:25:42.274Z,24.00
2023-03-04T02:31:06.100Z,24.10
2023-03-04T02:36:57.679Z,24.20
2023-03-04T02:39:38.357Z,24.40
2023-03-04T02:42:09.652Z,24.60
2023-03-04T02:44:40.545Z,24.70
2023-03-04T02:47:15.561Z,24.80
2023-03-04T02:49:45.807Z,24.90
2023-03-04T02:52:17.029Z,25.00
2023-03-04T02:54:47.218Z,25.10
2023-03-04T02:57:18.063Z,25.20
2023-03-04T02:59:48.352Z,25.30
2023-03-04T03:02:18.856Z,25.40
2023-03-04T03:04:50.787Z,25.50
2023-03-04T03:07:20.224Z,25.60
2023-03-04T03:09:50.324Z,25.70
2023-03-04T03:12:21.071Z,25.80
2023-03-04T03:14:51.079Z,25.90
2023-03-04T03:17:21.387Z,25.90
2023-03-04T03:19:51.263Z,26.00
2023-03-04T03:22:21.232Z,26.00
2023-03-04T03:24:51.334Z,26.20
2023-03-04T03:27:21.306Z,26.30
2023-03-04T03:30:11.422Z,26.40
2023-03-04T03:33:01.370Z,26.50
2023-03-04T03:35:31.265Z,26.60
2023-03-04T03:38:01.364Z,26.70
2023-03-04T03:40:31.208Z,26.80
2023-03-04T03:43:04.556Z,26.80
2023-03-04T03:45:37.792Z,26.80
2023-03-04T03:48:07.903Z,26.90
2023-03-04T03:50:37.718Z,27.00
2023-03-04T03:53:07.551Z,27.10
2023-03-04T03:55:37.937Z,27.10
2023-03-04T03:58:07.847Z,27.20
2023-03-04T04:00:37.848Z,27.30
2023-03-04T04:03:08.152Z,27.40
2023-03-04T04:05:38.072Z,27.40
2023-03-04T04:08:33.817Z,27.50
2023-03-04T04:11:09.376Z,27.50
2023-03-04T04:13:39.519Z,27.60
2023-03-04T04:16:11.073Z,27.70
2023-03-04T04:21:30.039Z,27.90
2023-03-04T04:24:20.104Z,27.90
2023-03-04T04:26:50.207Z,28.10
2023-03-04T04:32:21.143Z,28.20
2023-03-04T04:34:54.771Z,28.30
2023-03-04T04:37:24.810Z,28.30
2023-03-04T04:39:55.994Z,28.40
2023-03-04T04:42:25.925Z,28.40
2023-03-04T04:44:55.781Z,28.40
2023-03-04T04:47:25.464Z,28.50
2023-03-04T04:50:00.842Z,28.50
2023-03-04T04:52:26.781Z,28.60
2023-03-04T04:54:56.569Z,28.70
2023-03-04T04:57:26.789Z,28.70
2023-03-04T04:59:58.234Z,28.70
2023-03-04T05:02:28.244Z,28.70
2023-03-04T05:05:22.336Z,28.90
2023-03-04T05:07:52.677Z,28.90
2023-03-04T05:10:22.923Z,29.00
2023-03-04T05:12:52.799Z,29.00
2023-03-04T05:15:23.032Z,29.10
2023-03-04T05:17:52.868Z,29.10
2023-03-04T05:20:24.201Z,29.10
2023-03-04T05:22:54.499Z,29.10
2023-03-04T05:25:24.878Z,29.10
2023-03-04T05:28:02.526Z,29.20
2023-03-04T05:30:34.397Z,29.30
2023-03-04T05:33:03.789Z,29.40
2023-03-04T05:35:33.614Z,29.40
2023-03-04T05:38:03.957Z,29.40
2023-03-04T05:40:34.221Z,29.40
2023-03-04T05:43:29.397Z,29.40
2023-03-04T05:46:00.643Z,29.40
2023-03-04T05:48:30.864Z,29.50
2023-03-04T05:51:04.207Z,29.60
2023-03-04T05:53:38.936Z,29.60
2023-03-04T05:59:30.486Z,29.70
2023-03-04T06:02:01.112Z,29.70
2023-03-04T06:04:31.196Z,29.70
2023-03-04T06:07:17.925Z,29.80
2023-03-04T06:09:40.397Z,29.80
2023-03-04T06:12:33.670Z,29.80
2023-03-04T06:21:07.240Z,29.80
2023-03-04T06:23:42.648Z,29.80
2023-03-04T06:26:14.400Z,29.80
2023-03-04T06:28:46.357Z,29.90
2023-03-04T06:31:27.284Z,29.90
2023-03-04T06:33:57.436Z,30.00
2023-03-04T06:36:27.604Z,30.00
2023-03-04T06:38:57.565Z,30.10
2023-03-04T06:41:27.512Z,30.10
2023-03-04T06:43:57.677Z,30.00
2023-03-04T06:46:30.319Z,30.00
2023-03-04T06:48:59.241Z,30.00
2023-03-04T06:51:29.189Z,30.00
2023-03-04T06:53:59.079Z,30.00
2023-03-04T06:56:28.955Z,30.00
2023-03-04T06:58:58.826Z,30.00
2023-03-04T07:01:29.840Z,30.00
2023-03-04T07:04:00.029Z,30.10
2023-03-04T07:06:31.654Z,30.00
2023-03-04T07:09:04.207Z,30.00
2023-03-04T07:11:35.935Z,30.00
2023-03-04T07:14:05.258Z,30.00
2023-03-04T07:16:55.118Z,30.00
2023-03-04T07:19:27.647Z,30.10
2023-03-04T07:21:59.413Z,30.10
2023-03-04T07:24:28.466Z,30.10
2023-03-04T07:26:58.292Z,30.10
2023-03-04T07:29:28.374Z,30.00
2023-03-04T07:32:04.672Z,30.00
2023-03-04T07:34:44.186Z,30.00
2023-03-04T07:37:26.392Z,30.00
2023-03-04T07:39:50.041Z,30.00
2023-03-04T07:42:27.067Z,30.00
2023-03-04T07:44:59.845Z,30.00
2023-03-04T07:51:05.665Z,30.00
2023-03-04T07:53:39.393Z,30.00
2023-03-04T07:59:54.065Z,30.00
2023-03-04T08:02:35.281Z,30.00
2023-03-04T08:05:07.344Z,29.90
2023-03-04T08:07:37.330Z,29.90
2023-03-04T08:10:11.178Z,29.80
2023-03-04T08:12:41.236Z,29.80
2023-03-04T08:15:11.463Z,29.80
2023-03-04T08:17:41.478Z,29.90
2023-03-04T08:20:12.126Z,29.80
2023-03-04T08:22:42.119Z,29.80
2023-03-04T08:25:13.917Z,29.90
2023-03-04T08:27:44.019Z,29.80
2023-03-04T08:30:14.359Z,29.90
2023-03-04T08:32:47.282Z,29.80
2023-03-04T08:35:17.467Z,29.80
2023-03-04T08:40:36.062Z,29.80
2023-03-04T08:43:10.462Z,29.70
2023-03-04T08:45:40.378Z,29.70
2023-03-04T08:48:10.673Z,29.70
2023-03-04T08:50:40.387Z,29.70
2023-03-04T08:53:14.595Z,29.70
2023-03-04T08:55:53.715Z,29.70
2023-03-04T08:58:24.289Z,29.70
2023-03-04T09:00:54.207Z,29.70
2023-03-04T09:03:23.941Z,29.70
2023-03-04T09:05:54.295Z,29.60
2023-03-04T09:08:24.639Z,29.60
2023-03-04T09:10:55.440Z,29.60
2023-03-04T09:13:33.521Z,29.60
2023-03-04T09:16:03.323Z,29.50
2023-03-04T09:18:33.294Z,29.60
2023-03-04T09:21:03.364Z,29.50
2023-03-04T09:26:26.106Z,29.50
2023-03-04T09:29:05.049Z,29.50
2023-03-04T09:38:30.442Z,29.40
2023-03-04T09:41:01.521Z,29.40
2023-03-04T09:43:33.313Z,29.40
2023-03-04T09:46:04.627Z,29.40
2023-03-04T09:48:35.610Z,29.30
2023-03-04T09:51:16.177Z,29.30
2023-03-04T09:54:20.038Z,29.30
2023-03-04T09:56:50.528Z,29.20
2023-03-04T09:59:30.685Z,29.20
2023-03-04T10:02:07.527Z,29.20
2023-03-04T10:04:41.775Z,29.10
2023-03-04T10:07:13.400Z,29.10
2023-03-04T10:09:44.433Z,29.10
2023-03-04T10:12:27.966Z,29.00
2023-03-04T10:14:59.289Z,29.00
2023-03-04T10:17:33.320Z,29.00
2023-03-04T10:45:53.169Z,28.70
2023-03-04T10:54:53.627Z,28.60
2023-03-04T10:57:26.198Z,28.50
2023-03-04T11:00:02.729Z,28.40
2023-03-04T11:02:39.291Z,28.40
2023-03-04T11:05:47.738Z,28.30
2023-03-04T11:08:39.834Z,28.30
2023-03-04T11:10:34.790Z,28.30
2023-03-04T11:19:53.629Z,28.20
2023-03-04T11:22:41.580Z,28.10
2023-03-04T11:30:55.977Z,28.00
2023-03-04T11:33:58.295Z,28.00
2023-03-04T11:48:50.368Z,27.80
2023-03-04T11:51:28.708Z,27.80
2023-03-04T11:54:02.074Z,27.80
2023-03-04T11:59:55.165Z,27.70
2023-03-04T12:02:35.532Z,27.70
2023-03-04T12:08:14.654Z,27.60
2023-03-04T12:11:03.481Z,27.60
2023-03-04T12:13:30.591Z,27.60
2023-03-04T12:16:29.971Z,27.60
2023-03-04T12:18:46.604Z,27.60
2023-03-04T12:21:28.212Z,27.50
2023-03-04T12:29:32.136Z,27.50
2023-03-04T12:31:04.052Z,27.50
2023-03-04T12:32:26.451Z,27.50
2023-03-04T12:35:32.527Z,27.40
2023-03-04T12:38:01.828Z,27.40
2023-03-04T12:40:35.987Z,27.30
2023-03-04T12:43:12.599Z,27.30
2023-03-04T12:45:46.771Z,27.30
2023-03-04T12:55:25.016Z,27.20
2023-03-04T12:57:44.561Z,27.20
2023-03-04T13:06:41.879Z,27.10
2023-03-04T13:09:20.846Z,27.00
2023-03-04T13:15:48.634Z,27.00
2023-03-04T13:18:28.718Z,26.90
2023-03-04T13:21:14.938Z,26.90
2023-03-04T13:23:44.582Z,26.90
2023-03-04T13:26:41.413Z,26.80
2023-03-04T13:32:17.998Z,26.80
2023-03-04T13:34:55.368Z,26.80
2023-03-04T13:37:30.588Z,26.70
2023-03-04T13:40:19.026Z,26.70
2023-03-04T13:48:28.980Z,26.60
2023-03-04T13:54:39.785Z,26.50
2023-03-04T14:03:20.261Z,26.40
2023-03-04T14:09:02.340Z,26.40
2023-03-04T14:11:33.405Z,26.40
2023-03-04T14:14:05.253Z,26.30
2023-03-04T14:16:36.546Z,26.30
2023-03-04T14:19:45.602Z,26.30
2023-03-04T14:22:28.938Z,26.30
2023-03-04T14:25:13.552Z,26.20
2023-03-04T14:30:43.473Z,26.10
2023-03-04T14:33:14.505Z,26.10
2023-03-04T14:35:45.609Z,26.10
2023-03-04T14:38:22.490Z,26.10
2023-03-04T14:40:53.433Z,26.10
2023-03-04T14:43:24.307Z,26.00
2023-03-04T14:45:55.904Z,26.10
2023-03-04T14:48:27.056Z,26.00
2023-03-04T14:50:57.596Z,26.00
2023-03-04T14:53:28.693Z,25.90
2023-03-04T14:59:16.293Z,25.90
2023-03-04T15:01:47.191Z,25.90
2023-03-04T15:04:25.259Z,25.80
2023-03-04T15:06:58.359Z,25.90
2023-03-04T15:09:29.390Z,25.80
2023-03-04T15:12:00.376Z,25.80
2023-03-04T15:14:47.556Z,25.70
2023-03-04T15:17:35.042Z,25.70
2023-03-04T15:20:05.934Z,25.70
2023-03-04T15:22:40.044Z,25.70
2023-03-04T15:25:12.820Z,25.60
2023-03-04T15:27:42.548Z,25.60
2023-03-04T15:30:19.675Z,25.60
2023-03-04T15:32:49.366Z,25.50
2023-03-04T15:35:19.973Z,25.50
2023-03-04T15:37:50.601Z,25.50
2023-03-04T15:40:24.652Z,25.50
2023-03-04T15:42:54.486Z,25.50
2023-03-04T15:45:37.949Z,25.50
2023-03-04T15:48:11.684Z,25.40
2023-03-04T15:50:42.656Z,25.40
2023-03-04T15:53:19.754Z,25.40
2023-03-04T15:55:49.591Z,25.40
2023-03-04T15:58:19.381Z,25.30
2023-03-04T16:00:49.211Z,25.30
2023-03-04T16:03:19.748Z,25.30
2023-03-04T16:05:51.109Z,25.30
2023-03-04T16:08:22.228Z,25.30
2023-03-04T16:10:52.686Z,25.30
2023-03-04T16:13:23.737Z,25.20
2023-03-04T16:15:53.657Z,25.20
2023-03-04T16:18:24.804Z,25.20
2023-03-04T16:20:54.578Z,25.20
2023-03-04T16:23:25.619Z,25.10
2023-03-04T16:25:56.669Z,25.10
2023-03-04T16:28:26.474Z,25.00
2023-03-04T16:30:56.548Z,25.00
2023-03-04T16:33:26.188Z,25.00
2023-03-04T16:35:55.988Z,25.00
2023-03-04T16:38:28.170Z,24.90
2023-03-04T16:40:58.087Z,24.90
2023-03-04T16:43:28.112Z,24.80
2023-03-04T16:45:57.730Z,24.90
2023-03-04T16:48:27.543Z,24.80
2023-03-04T16:50:59.388Z,24.80
2023-03-04T16:53:33.368Z,24.80
2023-03-04T16:56:04.362Z,24.80
2023-03-04T16:58:34.169Z,24.70
2023-03-04T17:01:03.866Z,24.70
2023-03-04T17:03:33.780Z,24.70
2023-03-04T17:06:03.470Z,24.70
2023-03-04T17:08:33.206Z,24.70
2023-03-04T17:11:02.916Z,24.60
2023-03-04T17:13:32.806Z,24.60
2023-03-04T17:16:03.369Z,24.60
2023-03-04T17:18:33.190Z,24.60
2023-03-04T17:21:06.457Z,24.60
2023-03-04T17:23:36.368Z,24.50
2023-03-04T17:26:06.485Z,24.50
2023-03-04T17:28:36.401Z,24.50
2023-03-04T17:31:10.732Z,24.50
2023-03-04T17:33:40.615Z,24.40
2023-03-04T17:36:11.911Z,24.40
2023-03-04T17:38:42.228Z,24.40
2023-03-04T17:41:14.630Z,24.40
2023-03-04T17:43:47.880Z,24.30
2023-03-04T17:46:18.413Z,24.30
2023-03-04T17:48:48.370Z,24.30
2023-03-04T17:51:18.092Z,24.20
2023-03-04T17:53:47.863Z,24.20
2023-03-04T17:56:17.522Z,24.20
2023-03-04T17:58:47.224Z,24.10
2023-03-04T18:01:21.219Z,24.10
2023-03-04T18:03:51.030Z,24.10
2023-03-04T18:06:20.830Z,24.10
2023-03-04T18:08:50.818Z,24.10
2023-03-04T18:11:21.080Z,24.10
2023-03-04T18:13:51.032Z,24.10
2023-03-04T18:16:22.418Z,24.10
2023-03-04T18:18:52.828Z,24.00
2023-03-04T18:21:22.756Z,24.00
2023-03-04T18:23:52.541Z,24.10
2023-03-04T18:26:23.906Z,24.00
2023-03-04T18:28:54.129Z,24.00
2023-03-04T18:31:24.645Z,24.00
2023-03-04T18:33:54.705Z,24.00
2023-03-04T18:36:24.989Z,23.90
2023-03-04T18:38:54.816Z,24.00
2023-03-04T18:41:27.152Z,23.90
2023-03-04T18:43:55.648Z,23.90
2023-03-04T18:46:32.736Z,23.90
2023-03-04T18:49:06.513Z,23.80
2023-03-04T18:51:36.755Z,23.80
2023-03-04T18:54:06.956Z,23.80
2023-03-04T18:56:40.869Z,23.70
2023-03-04T18:59:15.126Z,23.70
2023-03-04T19:01:45.371Z,23.70
2023-03-04T19:04:15.870Z,23.70
2023-03-04T19:06:45.695Z,23.70
2023-03-04T19:09:15.419Z,23.70
2023-03-04T19:11:45.148Z,23.70
2023-03-04T19:14:14.960Z,23.70
2023-03-04T19:16:44.734Z,23.70
2023-03-04T19:19:14.518Z,23.70
2023-03-04T19:21:44.213Z,23.70
2023-03-04T19:24:13.921Z,23.70
2023-03-04T19:26:43.709Z,23.70
2023-03-04T19:29:13.498Z,23.70
2023-03-04T19:31:44.091Z,23.60
2023-03-04T19:34:14.008Z,23.60
2023-03-04T19:36:43.908Z,23.60
2023-03-04T19:39:15.245Z,23.60
2023-03-04T19:41:45.173Z,23.50
2023-03-04T19:44:14.900Z,23.50
2023-03-04T19:46:44.597Z,23.50
2023-03-04T19:49:14.327Z,23.50
2023-03-04T19:51:44.080Z,23.50
2023-03-04T19:54:13.833Z,23.50
2023-03-04T19:56:43.753Z,23.50
2023-03-04T19:59:13.481Z,23.50
2023-03-04T20:01:43.850Z,23.50
2023-03-04T20:04:15.023Z,23.50
2023-03-04T20:06:46.113Z,23.50
2023-03-04T20:09:16.553Z,23.40
2023-03-04T20:11:57.234Z,23.40
2023-03-04T20:14:17.819Z,23.40
2023-03-04T20:16:47.625Z,23.40
2023-03-04T20:19:17.383Z,23.40
2023-03-04T20:21:47.173Z,23.30
2023-03-04T20:24:17.021Z,23.30
2023-03-04T20:26:46.710Z,23.30
2023-03-04T20:29:16.519Z,23.30
2023-03-04T20:31:47.358Z,23.30
2023-03-04T20:34:17.053Z,23.30
2023-03-04T20:36:46.759Z,23.20
2023-03-04T20:39:28.189Z,23.20
2023-03-04T20:41:47.766Z,23.20
2023-03-04T20:44:17.562Z,23.10
2023-03-04T20:46:47.569Z,23.10
2023-03-04T20:49:19.702Z,23.10
2023-03-04T20:51:49.802Z,23.10
2023-03-04T20:54:20.034Z,23.10
2023-03-04T20:56:50.076Z,23.10
2023-03-04T20:59:20.509Z,23.10
2023-03-04T21:01:50.401Z,23.10
2023-03-04T21:04:20.619Z,23.10
2023-03-04T21:06:52.156Z,23.00
2023-03-04T21:09:23.169Z,23.00
2023-03-04T21:11:52.867Z,23.00
2023-03-04T21:14:23.959Z,22.90
2023-03-04T21:16:55.533Z,22.90
2023-03-04T21:19:26.389Z,22.90
2023-03-04T21:21:57.493Z,22.90
2023-03-04T21:24:28.698Z,22.90
2023-03-04T21:26:58.844Z,22.90
2023-03-04T21:29:29.222Z,22.90
2023-03-04T21:32:09.764Z,22.90
2023-03-04T21:34:32.510Z,22.90
2023-03-04T21:37:02.287Z,22.80
2023-03-04T21:39:32.566Z,22.80
2023-03-04T21:42:05.492Z,22.80
2023-03-04T21:44:48.516Z,22.90
2023-03-04T21:47:06.546Z,22.90
2023-03-04T21:49:36.842Z,22.90
2023-03-04T21:52:07.343Z,22.90
2023-03-04T21:54:37.053Z,22.90
2023-03-04T21:57:06.887Z,22.80
2023-03-04T21:59:36.680Z,22.80
2023-03-04T22:02:06.534Z,22.80
2023-03-04T22:04:36.557Z,22.80
2023-03-04T22:07:06.378Z,22.70
2023-03-04T22:09:36.144Z,22.70
2023-03-04T22:12:06.203Z,22.70
2023-03-04T22:14:35.923Z,22.70
2023-03-04T22:17:05.878Z,22.70
2023-03-04T22:19:35.809Z,22.70
2023-03-04T22:22:05.618Z,22.70
2023-03-04T22:24:35.441Z,22.70
2023-03-04T22:27:05.259Z,22.70
2023-03-04T22:29:35.116Z,22.60
2023-03-04T22:32:04.929Z,22.60
2023-03-04T22:34:34.800Z,22.60
2023-03-04T22:37:04.435Z,22.60
2023-03-04T22:39:34.141Z,22.60
2023-03-04T22:42:03.838Z,22.60
2023-03-04T22:44:33.444Z,22.60
2023-03-04T22:47:03.106Z,22.60
2023-03-04T22:49:34.307Z,22.50
2023-03-04T22:52:04.135Z,22.50
2023-03-04T22:54:33.926Z,22.50
2023-03-04T22:57:03.765Z,22.50
2023-03-04T22:59:33.552Z,22.50
2023-03-04T23:02:03.307Z,22.50
2023-03-04T23:04:33.476Z,22.50
2023-03-04T23:07:03.364Z,22.50
2023-03-04T23:09:33.057Z,22.40
2023-03-04T23:12:03.390Z,22.50
2023-03-04T23:14:33.068Z,22.50
2023-03-04T23:17:02.987Z,22.50
2023-03-04T23:19:32.757Z,22.40
2023-03-04T23:22:03.560Z,22.40
2023-03-04T23:24:33.254Z,22.40
2023-03-04T23:27:03.005Z,22.40
2023-03-04T23:29:32.822Z,22.40
2023-03-04T23:32:02.661Z,22.30
2023-03-04T23:34:32.526Z,22.30
2023-03-04T23:37:02.257Z,22.30
2023-03-04T23:39:31.970Z,22.30
2023-03-04T23:42:01.781Z,22.30
2023-03-04T23:44:31.578Z,22.30
2023-03-04T23:47:01.319Z,22.30
2023-03-04T23:49:31.248Z,22.30
2023-03-04T23:52:01.047Z,22.30
2023-03-04T23:54:32.088Z,22.30
2023-03-04T23:57:05.284Z,22.30
2023-03-04T23:59:35.237Z,22.30
